Time;durP1;ratioP1;P1;durP2;ratioP2;P2;SDS_P1;SDS_P2;PMS_P1;PMS_P2;Temp;Humidity;BMP_temperature;BMP_pressure;BME280_temperature;BME280_humidity;BME280_pressure;Samples;Min_cycle;Max_cycle;Signal;HPM_P1;HPM_P2
2021/04/02 00:00:38;;;;;;;11.23;4.47;;;4.60;96.20;;;;;;4371282;32;20243;-64
2021/04/02 00:03:13;;;;;;;14.17;5.17;;;4.60;96.10;;;;;;4363715;32;20176;-62
2021/04/02 00:05:40;;;;;;;12.97;5.03;;;4.70;96.00;;;;;;4367226;32;20311;-62
2021/04/02 00:08:07;;;;;;;16.50;4.97;;;4.70;96.20;;;;;;4375536;32;20202;-62
2021/04/02 00:10:40;;;;;;;12.97;4.77;;;4.70;96.10;;;;;;4362461;33;20230;-64
2021/04/02 00:13:06;;;;;;;15.83;4.90;;;4.70;96.20;;;;;;4373232;32;20164;-66
2021/04/02 00:15:33;;;;;;;7.13;4.27;;;4.60;96.30;;;;;;4377460;32;20198;-62
2021/04/02 00:17:59;;;;;;;9.33;4.70;;;4.70;96.10;;;;;;4375295;32;20184;-65
2021/04/02 00:20:26;;;;;;;12.43;4.30;;;4.60;96.20;;;;;;4365055;32;20200;-66
2021/04/02 00:22:52;;;;;;;11.10;4.77;;;4.60;96.10;;;;;;4373264;32;20514;-62
2021/04/02 00:25:20;;;;;;;9.70;4.03;;;4.50;96.20;;;;;;4376520;32;20611;-64
2021/04/02 00:27:46;;;;;;;12.90;4.40;;;4.60;96.30;;;;;;4363377;32;20184;-64
2021/04/02 00:30:16;;;;;;;6.63;4.17;;;4.60;96.30;;;;;;4373234;32;20645;-61
2021/04/02 00:32:43;;;;;;;9.67;4.07;;;4.60;96.20;;;;;;4361499;33;20157;-64
2021/04/02 00:35:11;;;;;;;13.63;4.60;;;4.50;96.20;;;;;;4369556;32;20208;-64
2021/04/02 00:37:38;;;;;;;9.70;3.80;;;4.50;95.90;;;;;;4361192;32;20229;-62
2021/04/02 00:40:11;;;;;;;12.83;4.40;;;4.50;96.10;;;;;;4372023;32;20611;-64
2021/04/02 00:42:37;;;;;;;12.63;4.17;;;4.40;96.20;;;;;;4348335;33;20200;-62
2021/04/02 00:45:05;;;;;;;10.63;3.87;;;4.40;96.20;;;;;;4370710;32;20254;-64
2021/04/02 00:47:31;;;;;;;10.50;3.97;;;4.40;96.20;;;;;;4375434;32;20222;-64
2021/04/02 00:49:57;;;;;;;14.70;3.93;;;4.40;96.30;;;;;;4371730;32;20187;-66
2021/04/02 00:52:24;;;;;;;9.73;4.20;;;4.30;96.30;;;;;;4364804;32;20195;-62
2021/04/02 00:54:51;;;;;;;15.10;4.20;;;4.30;96.20;;;;;;4376129;32;20167;-67
2021/04/02 00:57:17;;;;;;;11.13;4.13;;;4.30;96.30;;;;;;4374712;32;20212;-67
2021/04/02 00:59:43;;;;;;;10.10;4.40;;;4.30;96.40;;;;;;4364451;32;20280;-64
2021/04/02 01:02:10;;;;;;;12.60;4.03;;;4.30;96.20;;;;;;4364872;32;20184;-62
2021/04/02 01:04:36;;;;;;;7.30;3.60;;;4.30;96.30;;;;;;4375361;32;20250;-66
2021/04/02 01:07:03;;;;;;;11.93;4.73;;;4.20;96.40;;;;;;4377339;32;20520;-63
2021/04/02 01:09:29;;;;;;;8.20;4.23;;;4.20;96.40;;;;;;4374853;32;20206;-64
2021/04/02 01:11:56;;;;;;;14.67;3.93;;;4.20;96.40;;;;;;4373651;32;20652;-63
2021/04/02 01:14:22;;;;;;;14.53;3.97;;;4.20;96.70;;;;;;4361136;32;20259;-66
2021/04/02 01:16:49;;;;;;;8.67;3.60;;;4.20;96.40;;;;;;4368959;32;20214;-65
2021/04/02 01:19:23;;;;;;;11.63;3.53;;;4.20;96.50;;;;;;4361220;32;20172;-63
2021/04/02 01:21:52;;;;;;;9.27;3.67;;;4.30;96.40;;;;;;4367541;32;20219;-65
2021/04/02 01:24:33;;;;;;;13.20;4.10;;;4.20;96.40;;;;;;4374983;32;20188;-63
2021/04/02 01:27:10;;;;;;;11.27;4.17;;;4.10;96.40;;;;;;4368073;32;20242;-65
2021/04/02 01:29:44;;;;;;;13.47;3.73;;;4.10;96.30;;;;;;4375383;32;20216;-66
2021/04/02 01:32:14;;;;;;;10.13;3.50;;;4.10;96.40;;;;;;4369377;32;20168;-64
2021/04/02 01:34:44;;;;;;;11.13;3.70;;;4.10;96.50;;;;;;4370867;32;20571;-66
2021/04/02 01:37:15;;;;;;;10.00;3.93;;;4.10;96.90;;;;;;4374429;32;20223;-63
2021/04/02 01:39:43;;;;;;;10.93;3.33;;;4.10;96.60;;;;;;4361646;32;20239;-65
2021/04/02 01:42:16;;;;;;;18.03;4.37;;;4.00;96.60;;;;;;4368143;32;20278;-66
2021/04/02 01:44:44;;;;;;;10.23;3.40;;;4.00;96.50;;;;;;4369347;32;20227;-64
2021/04/02 01:47:11;;;;;;;9.87;3.67;;;4.00;96.50;;;;;;4367883;32;20184;-62
2021/04/02 01:49:38;;;;;;;6.27;3.50;;;4.00;96.60;;;;;;4375852;32;20171;-66
2021/04/02 01:52:06;;;;;;;9.87;3.60;;;4.00;96.60;;;;;;4374687;32;20194;-64
2021/04/02 01:54:34;;;;;;;7.43;3.77;;;4.00;96.60;;;;;;4370328;32;20216;-64
2021/04/02 01:57:01;;;;;;;8.20;3.20;;;4.00;96.50;;;;;;4367639;32;20169;-63
2021/04/02 01:59:29;;;;;;;9.67;3.30;;;4.00;96.60;;;;;;4371490;32;20188;-64
2021/04/02 02:01:58;;;;;;;12.37;3.77;;;4.00;96.50;;;;;;4365475;32;20521;-62
2021/04/02 02:04:26;;;;;;;13.27;3.30;;;3.90;96.50;;;;;;4374635;32;20213;-63
2021/04/02 02:06:54;;;;;;;9.00;3.53;;;3.90;96.40;;;;;;4372883;32;20252;-65
2021/04/02 02:09:25;;;;;;;8.10;3.50;;;3.90;96.60;;;;;;4374958;32;20231;-63
2021/04/02 02:11:55;;;;;;;8.20;3.27;;;3.90;96.80;;;;;;4373947;32;20220;-64
2021/04/02 02:14:23;;;;;;;7.33;3.50;;;3.90;96.70;;;;;;4376285;32;20216;-62
2021/04/02 02:16:54;;;;;;;9.10;4.30;;;3.80;96.70;;;;;;4371392;32;20549;-65
2021/04/02 02:19:25;;;;;;;9.57;3.80;;;3.80;96.70;;;;;;4374919;32;20200;-64
2021/04/02 02:21:53;;;;;;;8.97;3.77;;;3.80;96.80;;;;;;4377504;32;20217;-62
2021/04/02 02:24:20;;;;;;;9.87;3.77;;;3.80;96.80;;;;;;4374388;32;20152;-63
2021/04/02 02:26:46;;;;;;;9.73;3.63;;;3.80;96.90;;;;;;4376041;32;20599;-66
2021/04/02 02:29:13;;;;;;;7.37;3.47;;;3.80;97.00;;;;;;4376758;32;20227;-66
2021/04/02 02:31:41;;;;;;;8.60;2.90;;;3.80;96.90;;;;;;4375977;32;20187;-65
2021/04/02 02:34:09;;;;;;;7.93;3.60;;;3.80;96.90;;;;;;4374611;32;20181;-64
2021/04/02 02:36:37;;;;;;;8.90;3.70;;;3.80;97.00;;;;;;4372851;32;20605;-65
2021/04/02 02:39:11;;;;;;;7.50;3.30;;;3.70;96.90;;;;;;4363737;32;20199;-61
2021/04/02 02:41:38;;;;;;;10.17;3.30;;;3.70;97.00;;;;;;4365813;32;20172;-63
2021/04/02 02:44:05;;;;;;;8.67;3.47;;;3.80;97.00;;;;;;4368136;32;20216;-61
2021/04/02 02:46:32;;;;;;;8.47;3.33;;;3.80;97.10;;;;;;4377463;32;20597;-66
2021/04/02 02:49:03;;;;;;;9.07;3.30;;;3.70;97.10;;;;;;4368227;32;20566;-62
2021/04/02 02:51:31;;;;;;;11.90;3.43;;;3.80;97.20;;;;;;4377653;32;20223;-65
2021/04/02 02:54:01;;;;;;;8.00;3.17;;;3.70;97.00;;;;;;4377369;32;20220;-63
2021/04/02 02:56:29;;;;;;;10.37;3.13;;;3.70;97.10;;;;;;4375279;32;20176;-65
2021/04/02 02:58:56;;;;;;;7.67;3.20;;;3.70;96.90;;;;;;4375166;32;20483;-65
2021/04/02 03:01:23;;;;;;;6.57;3.57;;;3.70;97.10;;;;;;4376483;32;20191;-66
2021/04/02 03:03:53;;;;;;;9.97;3.53;;;3.70;97.40;;;;;;4377163;32;20171;-64
2021/04/02 03:06:22;;;;;;;9.87;3.43;;;3.70;97.60;;;;;;4376814;32;20215;-63
2021/04/02 03:08:52;;;;;;;8.83;3.13;;;3.60;97.70;;;;;;4373643;32;20179;-62
2021/04/02 03:11:21;;;;;;;8.63;3.50;;;3.60;97.70;;;;;;4377246;32;20211;-64
2021/04/02 03:13:50;;;;;;;4.53;3.03;;;3.60;97.70;;;;;;4371978;32;20172;-64
2021/04/02 03:16:17;;;;;;;9.37;3.47;;;3.70;97.60;;;;;;4368077;32;20180;-64
2021/04/02 03:18:48;;;;;;;10.30;4.03;;;3.60;97.40;;;;;;4378072;32;20164;-63
2021/04/02 03:21:15;;;;;;;11.83;3.93;;;3.60;98.00;;;;;;4365880;32;20227;-64
2021/04/02 03:23:44;;;;;;;13.20;4.07;;;3.50;98.00;;;;;;4367194;32;20640;-63
2021/04/02 03:26:11;;;;;;;13.93;3.97;;;3.50;97.80;;;;;;4375484;32;20586;-61
2021/04/02 03:28:40;;;;;;;10.03;3.50;;;3.50;98.00;;;;;;4376567;32;20510;-64
2021/04/02 03:31:06;;;;;;;8.20;3.70;;;3.60;97.90;;;;;;4368390;32;20165;-64
2021/04/02 03:33:35;;;;;;;9.07;3.63;;;3.60;97.90;;;;;;4372810;32;20185;-65
2021/04/02 03:36:06;;;;;;;8.60;3.20;;;3.60;97.70;;;;;;4375230;32;20188;-65
2021/04/02 03:38:35;;;;;;;9.00;3.00;;;3.70;97.60;;;;;;4378045;32;20208;-64
2021/04/02 03:41:05;;;;;;;9.90;3.50;;;3.70;97.40;;;;;;4373706;32;20684;-66
2021/04/02 03:43:33;;;;;;;8.07;3.40;;;3.70;97.30;;;;;;4366484;32;20652;-65
2021/04/02 03:46:02;;;;;;;9.90;3.20;;;3.80;97.20;;;;;;4362053;32;20213;-64
2021/04/02 03:48:32;;;;;;;5.63;3.30;;;3.70;97.20;;;;;;4376016;32;20191;-65
2021/04/02 03:51:01;;;;;;;6.13;3.10;;;3.70;97.20;;;;;;4373754;32;20236;-63
2021/04/02 03:53:31;;;;;;;6.33;2.97;;;3.60;97.10;;;;;;4364288;32;20259;-63
2021/04/02 03:55:59;;;;;;;9.50;3.73;;;3.50;97.10;;;;;;4365546;32;20208;-62
2021/04/02 03:58:26;;;;;;;9.00;3.53;;;3.60;97.30;;;;;;4364005;32;20288;-62
2021/04/02 04:00:56;;;;;;;11.97;3.77;;;3.60;97.30;;;;;;4369480;32;20338;-64
2021/04/02 04:03:24;;;;;;;7.57;3.90;;;3.60;97.40;;;;;;4374231;32;20190;-63
2021/04/02 04:05:55;;;;;;;9.50;4.00;;;3.60;97.30;;;;;;4376249;32;20157;-61
2021/04/02 04:08:23;;;;;;;6.67;3.77;;;3.50;97.30;;;;;;4375507;32;20714;-62
2021/04/02 04:10:51;;;;;;;6.50;3.80;;;3.50;97.30;;;;;;4374745;32;20189;-64
2021/04/02 04:13:20;;;;;;;9.03;3.83;;;3.50;97.30;;;;;;4375316;32;20519;-62
2021/04/02 04:15:48;;;;;;;10.03;3.63;;;3.50;97.40;;;;;;4372470;32;20648;-64
2021/04/02 04:18:18;;;;;;;8.90;4.00;;;3.40;97.40;;;;;;4375419;32;20191;-66
2021/04/02 04:20:45;;;;;;;9.47;3.77;;;3.40;97.50;;;;;;4375893;32;20243;-63
2021/04/02 04:23:13;;;;;;;11.50;3.90;;;3.40;97.60;;;;;;4369703;32;20232;-64
2021/04/02 04:25:41;;;;;;;10.43;3.47;;;3.40;97.70;;;;;;4368071;32;20182;-63
2021/04/02 04:28:11;;;;;;;7.17;3.40;;;3.40;97.70;;;;;;4374390;32;20160;-65
2021/04/02 04:30:39;;;;;;;9.43;3.77;;;3.40;97.70;;;;;;4375406;32;20224;-62
2021/04/02 04:33:06;;;;;;;7.40;3.50;;;3.40;97.60;;;;;;4375590;32;20172;-62
2021/04/02 04:35:34;;;;;;;8.83;3.63;;;3.30;97.60;;;;;;4374270;32;20525;-64
2021/04/02 04:38:05;;;;;;;7.60;3.90;;;3.30;97.60;;;;;;4375340;32;20176;-65
2021/04/02 04:40:33;;;;;;;9.87;4.20;;;3.30;97.70;;;;;;4367382;32;20216;-63
2021/04/02 04:43:03;;;;;;;8.13;3.50;;;3.30;97.80;;;;;;4375140;32;20180;-65
2021/04/02 04:45:30;;;;;;;8.47;3.20;;;3.30;97.90;;;;;;4365818;32;20157;-64
2021/04/02 04:47:59;;;;;;;11.57;3.97;;;3.30;97.80;;;;;;4360625;33;20153;-67
2021/04/02 04:50:28;;;;;;;8.73;3.87;;;3.30;97.80;;;;;;4371196;32;20492;-63
2021/04/02 04:53:02;;;;;;;9.73;4.50;;;3.30;97.90;;;;;;4372107;32;20172;-63
2021/04/02 04:55:31;;;;;;;9.80;3.97;;;3.30;97.90;;;;;;4371538;32;20182;-63
2021/04/02 04:57:59;;;;;;;16.53;4.17;;;3.20;97.90;;;;;;4371868;32;20321;-67
2021/04/02 05:00:27;;;;;;;12.60;3.80;;;3.20;97.90;;;;;;4367957;32;20183;-62
2021/04/02 05:02:56;;;;;;;11.60;4.67;;;3.20;97.90;;;;;;4366571;32;20240;-65
2021/04/02 05:05:27;;;;;;;8.97;4.20;;;3.20;97.80;;;;;;4374920;32;20199;-64
2021/04/02 05:07:55;;;;;;;9.03;4.20;;;3.20;97.70;;;;;;4374630;32;20160;-64
2021/04/02 05:10:23;;;;;;;11.57;4.60;;;3.20;98.00;;;;;;4374885;32;20219;-62
2021/04/02 05:12:51;;;;;;;12.37;4.67;;;3.20;97.90;;;;;;4376441;32;20531;-65
2021/04/02 05:15:19;;;;;;;8.90;4.47;;;3.30;98.10;;;;;;4372349;32;20617;-63
2021/04/02 05:17:47;;;;;;;9.00;4.27;;;3.30;98.10;;;;;;4367312;32;20474;-63
2021/04/02 05:20:13;;;;;;;13.47;5.17;;;3.40;98.20;;;;;;4363347;32;20203;-65
2021/04/02 05:22:40;;;;;;;9.70;4.70;;;3.50;98.10;;;;;;4370292;32;20208;-66
2021/04/02 05:25:08;;;;;;;13.70;4.67;;;3.50;98.00;;;;;;4369165;32;20229;-64
2021/04/02 05:27:36;;;;;;;11.63;5.10;;;3.60;98.00;;;;;;4368007;32;20212;-65
2021/04/02 05:30:02;;;;;;;14.07;5.50;;;3.80;97.70;;;;;;4362891;32;20208;-65
2021/04/02 05:32:28;;;;;;;17.03;5.17;;;3.70;97.50;;;;;;4373360;32;20586;-65
2021/04/02 05:34:55;;;;;;;11.53;5.20;;;3.70;97.50;;;;;;4369558;32;20224;-65
2021/04/02 05:37:21;;;;;;;12.13;4.77;;;3.80;97.50;;;;;;4375084;32;20167;-64
2021/04/02 05:39:47;;;;;;;11.33;5.13;;;3.90;97.60;;;;;;4374020;32;20220;-62
2021/04/02 05:42:22;;;;;;;15.37;5.43;;;3.90;97.40;;;;;;4374079;32;20220;-62
2021/04/02 05:44:51;;;;;;;11.67;4.67;;;3.90;97.30;;;;;;4367391;32;20222;-64
2021/04/02 05:47:22;;;;;;;10.80;3.97;;;4.00;97.20;;;;;;4374553;32;20157;-64
2021/04/02 05:49:50;;;;;;;19.57;5.03;;;4.10;97.20;;;;;;4374912;32;20153;-63
2021/04/02 05:52:17;;;;;;;8.87;4.23;;;4.10;97.10;;;;;;4374970;32;20179;-65
2021/04/02 05:54:48;;;;;;;14.10;4.63;;;4.20;97.10;;;;;;4375430;32;20165;-63
2021/04/02 05:57:17;;;;;;;18.00;5.53;;;4.20;97.00;;;;;;4379009;32;20450;-65
2021/04/02 05:59:44;;;;;;;10.00;4.40;;;4.20;96.80;;;;;;4377902;32;20212;-63
2021/04/02 06:02:13;;;;;;;9.53;4.70;;;4.30;96.70;;;;;;4379211;32;20180;-62
2021/04/02 06:04:42;;;;;;;10.57;5.10;;;4.40;96.40;;;;;;4377496;32;20183;-65
2021/04/02 06:07:08;;;;;;;14.07;4.67;;;4.50;96.40;;;;;;4377299;32;20153;-63
2021/04/02 06:09:35;;;;;;;10.70;4.33;;;4.80;96.20;;;;;;4376725;32;20206;-61
2021/04/02 06:12:01;;;;;;;12.23;4.60;;;5.00;96.00;;;;;;4377226;32;20603;-61
2021/04/02 06:14:28;;;;;;;14.30;4.63;;;5.10;95.40;;;;;;4376411;32;20203;-64
2021/04/02 06:16:56;;;;;;;8.30;3.30;;;5.40;95.00;;;;;;4376117;32;20172;-61
2021/04/02 06:19:23;;;;;;;10.60;3.83;;;5.80;94.30;;;;;;4376572;32;20174;-61
2021/04/02 06:21:52;;;;;;;12.43;4.63;;;5.70;94.10;;;;;;4376204;32;20160;-63
2021/04/02 06:24:35;;;;;;;15.27;3.80;;;5.80;93.90;;;;;;4373083;32;20164;-61
2021/04/02 06:27:13;;;;;;;11.37;3.90;;;5.90;93.70;;;;;;4364024;32;20204;-64
2021/04/02 06:29:41;;;;;;;8.63;3.90;;;5.90;93.60;;;;;;4367272;32;20198;-66
2021/04/02 06:32:08;;;;;;;12.73;4.03;;;6.10;93.50;;;;;;4369408;32;20161;-62
2021/04/02 06:34:44;;;;;;;8.03;2.90;;;6.50;93.30;;;;;;4367377;32;20174;-63
2021/04/02 06:37:11;;;;;;;13.10;3.20;;;6.80;92.20;;;;;;4369668;32;20219;-62
2021/04/02 06:39:37;;;;;;;8.47;3.40;;;7.00;91.50;;;;;;4368083;32;20236;-64
2021/04/02 06:42:10;;;;;;;10.70;3.20;;;7.10;91.20;;;;;;4367610;32;20656;-64
2021/04/02 06:44:37;;;;;;;12.23;2.50;;;7.40;90.90;;;;;;4366612;32;20195;-62
2021/04/02 06:47:07;;;;;;;9.60;2.90;;;7.70;90.20;;;;;;4367543;32;20212;-62
2021/04/02 06:49:33;;;;;;;10.77;3.20;;;8.10;89.80;;;;;;4368085;32;20573;-62
2021/04/02 06:52:01;;;;;;;9.13;2.97;;;8.20;88.30;;;;;;4370092;32;20436;-63
2021/04/02 06:54:29;;;;;;;11.77;2.93;;;8.30;88.10;;;;;;4371126;32;20529;-63
2021/04/02 06:57:03;;;;;;;14.30;3.60;;;8.50;87.20;;;;;;4371808;32;20235;-64
2021/04/02 06:59:32;;;;;;;13.00;3.60;;;8.60;86.00;;;;;;4371794;32;20160;-61
2021/04/02 07:02:00;;;;;;;7.77;2.90;;;8.70;85.20;;;;;;4370157;32;20616;-61
2021/04/02 07:04:27;;;;;;;10.77;2.57;;;8.70;85.00;;;;;;4368588;32;20259;-65
2021/04/02 07:06:54;;;;;;;11.70;3.47;;;8.60;85.40;;;;;;4370028;32;20218;-63
2021/04/02 07:09:23;;;;;;;14.13;3.23;;;8.60;85.80;;;;;;4312317;32;1815424;-61
2021/04/02 07:11:53;;;;;;;15.87;3.30;;;8.40;85.40;;;;;;4370116;32;20172;-64
2021/04/02 07:14:20;;;;;;;12.10;3.30;;;8.20;85.90;;;;;;4371713;32;20180;-62
2021/04/02 07:16:48;;;;;;;8.93;2.47;;;8.20;86.80;;;;;;4371532;32;20152;-66
2021/04/02 07:19:16;;;;;;;12.70;3.23;;;8.20;86.80;;;;;;4367523;32;20184;-62
2021/04/02 07:21:43;;;;;;;10.53;2.97;;;8.20;86.10;;;;;;4369077;32;20202;-61
2021/04/02 07:24:10;;;;;;;17.03;3.63;;;8.10;86.40;;;;;;4362388;32;20165;-61
2021/04/02 07:26:38;;;;;;;16.50;3.83;;;8.00;86.60;;;;;;4369232;32;20220;-62
2021/04/02 07:29:05;;;;;;;9.40;3.27;;;8.10;86.50;;;;;;4368504;32;20236;-62
2021/04/02 07:31:32;;;;;;;9.87;2.63;;;8.10;86.60;;;;;;4371644;32;20226;-61
2021/04/02 07:33:59;;;;;;;11.43;2.87;;;8.10;86.80;;;;;;4371121;32;20484;-61
2021/04/02 07:36:26;;;;;;;8.83;2.63;;;8.10;87.00;;;;;;4371273;32;20228;-64
2021/04/02 07:38:53;;;;;;;6.23;3.10;;;8.30;86.40;;;;;;4371367;32;20167;-63
2021/04/02 07:41:21;;;;;;;13.47;2.70;;;8.40;86.10;;;;;;4371356;32;20561;-63
2021/04/02 07:43:51;;;;;;;10.40;3.00;;;8.40;85.70;;;;;;4370144;32;20171;-64
2021/04/02 07:46:20;;;;;;;11.97;2.80;;;8.40;85.10;;;;;;4370649;32;20149;-64
2021/04/02 07:48:50;;;;;;;7.97;2.70;;;8.50;84.90;;;;;;4366179;32;20144;-64
2021/04/02 07:51:20;;;;;;;8.47;3.20;;;8.50;85.60;;;;;;4368246;32;20262;-63
2021/04/02 07:53:46;;;;;;;9.27;3.27;;;8.00;87.30;;;;;;4370782;32;20468;-63
2021/04/02 07:56:14;;;;;;;12.83;3.30;;;8.10;87.00;;;;;;4371136;32;20144;-63
2021/04/02 07:58:46;;;;;;;11.63;2.80;;;7.90;87.70;;;;;;4369026;32;20168;-63
2021/04/02 08:01:15;;;;;;;10.33;2.87;;;8.10;87.40;;;;;;4371424;32;20188;-62
2021/04/02 08:03:45;;;;;;;10.90;2.70;;;8.00;87.20;;;;;;4362578;32;20215;-63
2021/04/02 08:06:29;;;;;;;7.30;2.70;;;8.10;86.70;;;;;;4366181;32;20189;-63
2021/04/02 08:08:55;;;;;;;13.03;3.17;;;8.10;86.50;;;;;;4369095;32;20158;-62
2021/04/02 08:11:26;;;;;;;8.13;2.40;;;8.10;86.00;;;;;;4369087;32;20535;-62
2021/04/02 08:13:58;;;;;;;10.03;2.80;;;8.10;84.30;;;;;;4367969;32;20204;-62
2021/04/02 08:16:45;;;;;;;7.70;2.27;;;8.20;84.80;;;;;;4368061;32;20169;-62
2021/04/02 08:19:14;;;;;;;5.63;1.87;;;8.20;82.20;;;;;;4366951;32;20607;-65
2021/04/02 08:21:44;;;;;;;13.73;2.37;;;8.40;79.70;;;;;;4368279;32;20184;-65
2021/04/02 08:24:11;;;;;;;11.90;2.07;;;8.60;77.90;;;;;;4364307;32;20268;-63
2021/04/02 08:26:39;;;;;;;8.53;2.40;;;8.60;77.60;;;;;;4364414;32;20196;-63
2021/04/02 08:29:07;;;;;;;4.97;2.10;;;8.80;78.30;;;;;;4368540;32;20235;-63
2021/04/02 08:31:34;;;;;;;9.37;2.23;;;8.90;76.50;;;;;;4367084;32;20652;-65
2021/04/02 08:34:03;;;;;;;7.27;1.80;;;9.10;76.30;;;;;;4368253;32;20148;-63
2021/04/02 08:36:29;;;;;;;9.27;2.10;;;9.50;75.30;;;;;;4367479;32;20148;-62
2021/04/02 08:38:56;;;;;;;11.23;2.30;;;9.50;73.40;;;;;;4365627;32;20219;-67
2021/04/02 08:41:26;;;;;;;6.97;1.97;;;9.30;74.00;;;;;;4364308;32;20232;-65
2021/04/02 08:43:53;;;;;;;10.70;2.20;;;9.10;75.10;;;;;;4368696;32;20204;-64
2021/04/02 08:46:36;;;;;;;8.67;2.67;;;9.10;74.80;;;;;;4363236;32;20167;-64
2021/04/02 08:49:05;;;;;;;11.63;2.30;;;9.20;74.50;;;;;;4367167;32;20287;-66
2021/04/02 08:51:31;;;;;;;9.90;2.60;;;9.00;75.30;;;;;;4364662;32;20578;-63
2021/04/02 08:53:58;;;;;;;10.20;2.13;;;9.30;75.80;;;;;;4364436;32;20220;-63
2021/04/02 08:56:27;;;;;;;12.50;2.30;;;9.50;74.40;;;;;;4366284;32;20216;-61
2021/04/02 08:58:53;;;;;;;7.03;2.30;;;9.60;73.40;;;;;;4367733;32;20519;-64
2021/04/02 09:01:21;;;;;;;9.80;2.10;;;9.70;73.30;;;;;;4366413;32;20152;-63
2021/04/02 09:03:49;;;;;;;7.97;2.17;;;9.70;72.70;;;;;;4364444;32;20220;-63
2021/04/02 09:06:16;;;;;;;4.83;2.07;;;9.60;73.30;;;;;;4365801;32;20578;-62
2021/04/02 09:08:43;;;;;;;14.87;2.77;;;9.50;73.20;;;;;;4367887;32;20148;-62
2021/04/02 09:11:10;;;;;;;12.03;3.63;;;9.50;73.80;;;;;;4364004;32;20318;-65
2021/04/02 09:13:38;;;;;;;10.03;2.27;;;9.50;74.30;;;;;;4363623;32;20332;-63
2021/04/02 09:16:10;;;;;;;10.73;2.20;;;9.30;74.50;;;;;;4367916;32;20232;-63
2021/04/02 09:18:47;;;;;;;12.67;2.50;;;9.50;74.80;;;;;;4366503;32;20171;-61
2021/04/02 09:21:14;;;;;;;10.03;2.50;;;9.60;73.80;;;;;;4367646;32;20600;-63
2021/04/02 09:23:41;;;;;;;7.57;2.10;;;9.80;71.40;;;;;;4363859;32;20271;-62
2021/04/02 09:26:09;;;;;;;13.63;2.50;;;9.60;72.30;;;;;;4365350;32;20176;-62
2021/04/02 09:28:37;;;;;;;14.37;2.17;;;9.50;72.90;;;;;;4367896;32;20532;-64
2021/04/02 09:31:23;;;;;;;12.93;2.07;;;9.50;72.90;;;;;;4360766;32;20215;-66
2021/04/02 09:33:52;;;;;;;8.20;1.87;;;9.60;72.60;;;;;;4360005;32;20175;-65
2021/04/02 09:36:20;;;;;;;16.57;2.63;;;9.60;72.90;;;;;;4363168;32;20172;-63
2021/04/02 09:38:48;;;;;;;18.53;2.57;;;9.80;72.50;;;;;;4361255;32;20144;-65
2021/04/02 09:41:15;;;;;;;9.10;2.07;;;9.80;72.80;;;;;;4362010;32;20175;-65
2021/04/02 09:43:43;;;;;;;8.67;2.20;;;10.00;71.80;;;;;;4366113;32;20271;-64
2021/04/02 09:46:13;;;;;;;8.13;2.17;;;10.00;72.20;;;;;;4360672;32;20229;-64
2021/04/02 09:48:39;;;;;;;7.80;1.83;;;10.10;71.50;;;;;;4367873;32;20213;-63
2021/04/02 09:51:06;;;;;;;12.50;1.80;;;10.10;71.60;;;;;;4365630;32;20220;-64
2021/04/02 09:53:33;;;;;;;12.93;2.13;;;10.10;71.80;;;;;;4365577;32;20201;-63
2021/04/02 09:56:00;;;;;;;10.53;2.20;;;10.00;71.50;;;;;;4366549;32;20231;-63
2021/04/02 09:58:27;;;;;;;14.17;3.20;;;9.90;71.90;;;;;;4368308;32;20209;-63
2021/04/02 10:00:53;;;;;;;9.33;2.33;;;9.50;73.30;;;;;;4366428;32;20296;-65
2021/04/02 10:03:20;;;;;;;10.13;2.50;;;9.30;75.10;;;;;;4368450;32;20180;-65
2021/04/02 10:05:46;;;;;;;7.93;2.07;;;9.70;74.50;;;;;;4368126;32;20546;-63
2021/04/02 10:08:12;;;;;;;14.47;2.47;;;9.70;74.30;;;;;;4366220;32;20208;-63
2021/04/02 10:10:39;;;;;;;8.77;2.83;;;9.40;74.60;;;;;;4357963;32;20298;-65
2021/04/02 10:13:06;;;;;;;9.20;2.40;;;8.80;77.30;;;;;;4353769;33;20219;-66
2021/04/02 10:15:32;;;;;;;5.80;2.00;;;8.60;77.30;;;;;;4355694;33;20215;-65
2021/04/02 10:17:58;;;;;;;10.47;2.40;;;8.50;77.50;;;;;;4355163;33;20600;-64
2021/04/02 10:20:25;;;;;;;13.77;2.60;;;8.40;78.10;;;;;;4355625;33;20148;-67
2021/04/02 10:22:51;;;;;;;10.60;2.17;;;8.40;78.10;;;;;;4354496;33;20156;-62
2021/04/02 10:25:17;;;;;;;10.40;2.03;;;9.10;76.90;;;;;;4354796;33;20153;-65
2021/04/02 10:27:44;;;;;;;7.83;2.33;;;9.40;75.80;;;;;;4356509;33;20148;-65
2021/04/02 10:30:12;;;;;;;11.20;2.43;;;9.10;74.50;;;;;;4354827;33;20167;-67
2021/04/02 10:32:39;;;;;;;12.17;2.17;;;8.70;75.60;;;;;;4354081;33;20167;-64
2021/04/02 10:35:08;;;;;;;13.20;2.47;;;9.10;75.50;;;;;;4352445;33;20248;-62
2021/04/02 10:37:34;;;;;;;11.00;2.33;;;8.70;76.70;;;;;;4355466;33;20153;-63
2021/04/02 10:40:00;;;;;;;7.23;2.43;;;8.60;75.80;;;;;;4355207;32;20149;-65
2021/04/02 10:42:27;;;;;;;12.67;2.13;;;9.10;74.60;;;;;;4357013;32;20200;-65
2021/04/02 10:44:53;;;;;;;13.03;2.50;;;8.80;75.10;;;;;;4357300;32;20150;-64
2021/04/02 10:47:20;;;;;;;9.47;2.00;;;9.20;75.60;;;;;;4356725;32;20653;-67
2021/04/02 10:49:46;;;;;;;12.87;2.30;;;9.40;74.20;;;;;;4356055;32;20528;-64
2021/04/02 10:52:13;;;;;;;9.97;2.30;;;8.80;75.10;;;;;;4355200;32;20161;-64
2021/04/02 10:54:39;;;;;;;13.77;2.30;;;9.40;74.00;;;;;;4356076;33;20215;-64
2021/04/02 10:57:07;;;;;;;8.97;2.10;;;9.00;74.50;;;;;;4355723;32;20208;-64
2021/04/02 10:59:33;;;;;;;7.37;2.47;;;9.20;74.20;;;;;;4355770;33;20164;-63
2021/04/02 11:02:00;;;;;;;13.23;2.57;;;9.70;74.10;;;;;;4355418;33;20342;-64
2021/04/02 11:04:27;;;;;;;11.10;2.63;;;9.90;72.60;;;;;;4357388;33;20232;-64
2021/04/02 11:06:53;;;;;;;9.67;2.07;;;10.10;72.00;;;;;;4357156;33;20161;-63
2021/04/02 11:09:20;;;;;;;6.27;2.03;;;10.20;71.50;;;;;;4355041;33;20284;-66
2021/04/02 11:11:47;;;;;;;13.33;2.67;;;9.90;72.50;;;;;;4356168;32;20208;-64
2021/04/02 11:14:13;;;;;;;8.23;1.80;;;9.60;72.20;;;;;;4356504;32;20161;-68
2021/04/02 11:16:39;;;;;;;6.90;1.87;;;9.90;72.20;;;;;;4354783;32;20283;-62
2021/04/02 11:19:06;;;;;;;6.53;1.90;;;10.00;70.40;;;;;;4356828;33;20212;-65
2021/04/02 11:21:33;;;;;;;9.80;2.23;;;10.10;70.50;;;;;;4351028;32;20636;-62
2021/04/02 11:24:00;;;;;;;6.47;2.13;;;10.40;69.70;;;;;;4357025;33;20147;-64
2021/04/02 11:26:27;;;;;;;12.43;2.40;;;10.70;69.20;;;;;;4353181;33;20300;-64
2021/04/02 11:28:53;;;;;;;8.03;1.90;;;10.90;68.40;;;;;;4358068;32;20169;-64
2021/04/02 11:31:22;;;;;;;15.70;3.03;;;10.90;68.70;;;;;;4352646;32;20555;-65
2021/04/02 11:33:48;;;;;;;9.13;2.20;;;10.60;69.30;;;;;;4355361;32;20550;-63
2021/04/02 11:36:15;;;;;;;13.43;2.40;;;10.50;70.10;;;;;;4355037;32;20174;-63
2021/04/02 11:38:44;;;;;;;11.47;2.23;;;10.60;70.50;;;;;;4353302;33;20168;-63
2021/04/02 11:41:11;;;;;;;16.40;2.83;;;9.90;71.80;;;;;;4355040;32;20212;-63
2021/04/02 11:43:38;;;;;;;7.70;2.83;;;10.40;71.00;;;;;;4353677;33;20169;-64
2021/04/02 11:46:04;;;;;;;12.47;2.00;;;10.50;70.50;;;;;;4354899;32;20150;-64
2021/04/02 11:48:32;;;;;;;13.47;2.80;;;10.10;71.20;;;;;;4354141;33;20296;-64
2021/04/02 11:50:59;;;;;;;16.67;2.60;;;10.20;71.50;;;;;;4357568;32;20264;-63
2021/04/02 11:53:28;;;;;;;11.67;2.40;;;10.40;70.00;;;;;;4354609;32;20453;-65
2021/04/02 11:55:58;;;;;;;6.77;1.63;;;10.20;70.50;;;;;;4354895;33;20202;-64
2021/04/02 11:58:24;;;;;;;7.07;1.93;;;10.30;70.50;;;;;;4356274;32;20162;-63
2021/04/02 12:00:51;;;;;;;8.23;2.40;;;10.40;70.40;;;;;;4355475;32;20162;-64
2021/04/02 12:03:18;;;;;;;11.47;2.43;;;10.30;71.60;;;;;;4355834;32;20589;-64
2021/04/02 12:05:44;;;;;;;6.50;2.27;;;10.20;71.10;;;;;;4355770;33;20358;-63
2021/04/02 12:08:10;;;;;;;12.63;2.30;;;10.30;71.10;;;;;;4353286;32;20204;-63
2021/04/02 12:10:39;;;;;;;12.73;2.40;;;10.00;72.30;;;;;;4355972;32;20178;-64
2021/04/02 12:13:06;;;;;;;7.67;2.47;;;10.00;72.20;;;;;;4355179;33;20175;-62
2021/04/02 12:15:32;;;;;;;12.67;2.50;;;10.00;72.90;;;;;;4351067;33;20168;-62
2021/04/02 12:17:59;;;;;;;13.03;3.30;;;10.00;72.90;;;;;;4355043;32;20169;-63
2021/04/02 12:20:25;;;;;;;13.20;2.57;;;9.80;74.00;;;;;;4356465;32;20164;-64
2021/04/02 12:22:52;;;;;;;9.10;2.27;;;10.00;72.50;;;;;;4354788;33;20250;-64
2021/04/02 12:25:18;;;;;;;10.43;2.47;;;9.70;73.00;;;;;;4354340;33;20565;-64
2021/04/02 12:27:44;;;;;;;11.40;2.60;;;9.40;73.30;;;;;;4352304;32;20228;-64
2021/04/02 12:30:14;;;;;;;8.83;2.43;;;9.70;73.90;;;;;;4353171;33;20581;-64
2021/04/02 12:32:41;;;;;;;10.50;2.93;;;10.00;73.20;;;;;;4354623;33;20164;-65
2021/04/02 12:35:09;;;;;;;6.07;2.17;;;9.70;74.00;;;;;;4352625;32;20164;-63
2021/04/02 12:37:36;;;;;;;9.20;2.73;;;9.70;74.00;;;;;;4355971;32;20295;-64
2021/04/02 12:40:09;;;;;;;7.90;2.07;;;9.80;74.10;;;;;;4354989;33;20149;-63
2021/04/02 12:42:35;;;;;;;10.60;2.63;;;9.90;74.60;;;;;;4353541;32;20230;-64
2021/04/02 12:45:03;;;;;;;9.23;2.03;;;9.50;75.90;;;;;;4353458;32;20152;-64
2021/04/02 12:47:30;;;;;;;9.90;2.13;;;9.40;76.20;;;;;;4355272;33;20224;-64
2021/04/02 12:49:57;;;;;;;16.13;2.50;;;9.30;76.30;;;;;;4354922;32;20176;-64
2021/04/02 12:52:23;;;;;;;7.57;1.63;;;9.20;76.70;;;;;;4352607;32;20253;-64
2021/04/02 12:54:49;;;;;;;6.70;1.50;;;9.60;75.30;;;;;;4355526;32;20186;-64